Time;durP1;ratioP1;P1;durP2;ratioP2;P2;SDS_P1;SDS_P2;PMS_P1;PMS_P2;Temp;Humidity;BMP_temperature;BMP_pressure;BME280_temperature;BME280_humidity;BME280_pressure;Samples;Min_cycle;Max_cycle;Signal;HPM_P1;HPM_P2
2023/01/11 00:00:04;;;;;;;;;;;;;;;10.68;74.21;101034.13;5069572;28;20572;-85
2023/01/11 00:02:31;;;;;;;;;;;;;;;10.68;74.41;101043.69;5062466;28;20430;-85
2023/01/11 00:04:56;;;;;;;;;;;;;;;10.64;74.64;101045.19;5066816;28;19912;-86
2023/01/11 00:07:22;;;;;;;;;;;;;;;10.64;74.71;101050.41;5090141;28;20011;-85
2023/01/11 00:09:48;;;;;;;;;;;;;;;10.64;74.29;101055.66;5033254;28;19916;-85
2023/01/11 00:12:13;;;;;;;;;;;;;;;10.56;74.63;101049.06;5085805;28;19912;-85
2023/01/11 00:14:39;;;;;;;;;;;;;;;10.69;74.53;101035.00;5052343;28;19916;-85
2023/01/11 00:17:05;;;;;;;;;;;;;;;10.70;74.24;101049.88;5080588;28;20007;-85
2023/01/11 00:19:30;;;;;;;;;;;;;;;10.68;74.26;101062.84;5068453;28;20013;-84
2023/01/11 00:21:55;;;;;;;;;;;;;;;10.64;74.52;101059.97;5066610;28;20066;-84
2023/01/11 00:24:21;;;;;;;;;;;;;;;10.66;74.30;101053.13;5092440;28;20593;-85
2023/01/11 00:26:46;;;;;;;;;;;;;;;10.74;74.18;101046.63;5070659;28;20367;-84
2023/01/11 00:29:12;;;;;;;;;;;;;;;10.72;74.45;101046.53;5051996;28;19912;-84
2023/01/11 00:31:37;;;;;;;;;;;;;;;10.75;74.12;101048.44;5070275;28;19928;-84
2023/01/11 00:34:02;;;;;;;;;;;;;;;10.73;74.29;101044.81;5069912;28;19927;-84
2023/01/11 00:36:28;;;;;;;;;;;;;;;10.69;74.43;101038.53;5088449;28;20413;-84
2023/01/11 00:38:54;;;;;;;;;;;;;;;10.71;74.62;101036.94;5072220;28;19930;-85
2023/01/11 00:49:32;;;;;;;;;;;;;;;10.73;74.07;101026.53;5081047;28;20015;-84
2023/01/11 00:51:58;;;;;;;;;;;;;;;10.75;74.34;101017.09;5072472;28;20011;-85
2023/01/11 00:54:23;;;;;;;;;;;;;;;10.77;73.94;101016.38;5072426;28;19916;-84
2023/01/11 00:56:49;;;;;;;;;;;;;;;10.76;74.02;101027.63;5072284;28;20504;-84
2023/01/11 00:59:14;;;;;;;;;;;;;;;10.74;73.99;101021.41;5078013;28;19928;-84
2023/01/11 01:01:40;;;;;;;;;;;;;;;10.75;74.00;101001.41;5085223;28;20007;-83
2023/01/11 01:04:05;;;;;;;;;;;;;;;10.77;73.75;101005.94;5055221;28;20317;-84
2023/01/11 01:06:30;;;;;;;;;;;;;;;10.76;74.12;101008.44;5072446;28;19923;-84
2023/01/11 01:08:56;;;;;;;;;;;;;;;10.79;74.36;101013.84;5073627;28;19916;-84
2023/01/11 01:11:22;;;;;;;;;;;;;;;10.79;74.23;101025.22;5055408;28;19960;-84
2023/01/11 01:16:31;;;;;;;;;;;;;;;10.77;74.04;101038.97;5083956;28;20022;-84
2023/01/11 01:18:58;;;;;;;;;;;;;;;10.74;74.58;101046.63;5054437;28;20023;-84
2023/01/11 01:21:24;;;;;;;;;;;;;;;10.76;74.15;101058.06;5082695;28;19916;-83
2023/01/11 01:23:53;;;;;;;;;;;;;;;10.75;74.13;101070.25;5084681;28;20465;-84
2023/01/11 01:26:18;;;;;;;;;;;;;;;10.79;74.15;101068.69;5051868;28;19916;-84
2023/01/11 01:28:44;;;;;;;;;;;;;;;10.81;73.89;101074.91;5087670;28;21023;-84
2023/01/11 01:31:09;;;;;;;;;;;;;;;10.78;74.35;101078.25;5087376;28;20366;-84
2023/01/11 01:33:35;;;;;;;;;;;;;;;10.78;74.04;101070.41;5073020;28;20416;-84
2023/01/11 01:36:01;;;;;;;;;;;;;;;10.76;74.20;101066.81;5085350;28;19917;-84
2023/01/11 01:38:26;;;;;;;;;;;;;;;10.79;74.31;101056.56;5085638;28;19917;-85
2023/01/11 01:40:52;;;;;;;;;;;;;;;10.82;74.04;101050.59;5071445;28;19966;-84
2023/01/11 01:43:17;;;;;;;;;;;;;;;10.81;74.03;101061.84;5097253;28;20312;-85
2023/01/11 01:45:43;;;;;;;;;;;;;;;10.79;74.27;101053.94;5071551;28;19916;-84
2023/01/11 01:48:09;;;;;;;;;;;;;;;10.79;74.11;101063.47;5054895;28;19916;-84
2023/01/11 01:50:36;;;;;;;;;;;;;;;10.82;73.86;101063.66;5085700;28;20389;-84
2023/01/11 01:53:03;;;;;;;;;;;;;;;10.82;74.19;101066.28;5087349;28;19940;-85
2023/01/11 01:55:29;;;;;;;;;;;;;;;10.82;74.02;101062.78;5080990;28;19932;-85
2023/01/11 01:57:55;;;;;;;;;;;;;;;10.84;74.30;101063.72;5086446;28;19931;-84
2023/01/11 02:00:20;;;;;;;;;;;;;;;10.82;74.00;101066.28;5053002;28;19942;-84
2023/01/11 02:02:46;;;;;;;;;;;;;;;10.83;73.89;101069.78;5086154;28;19917;-85
2023/01/11 02:05:12;;;;;;;;;;;;;;;10.85;74.17;101053.38;5082147;28;19916;-84
2023/01/11 02:07:38;;;;;;;;;;;;;;;10.84;73.79;101041.13;5085168;28;19924;-83
2023/01/11 02:10:08;;;;;;;;;;;;;;;10.82;74.24;101055.81;5084818;28;19939;-84
2023/01/11 02:12:38;;;;;;;;;;;;;;;10.83;74.26;101064.56;5089938;28;19916;-85
2023/01/11 02:15:03;;;;;;;;;;;;;;;10.84;73.81;101071.56;5085423;28;20394;-84
2023/01/11 02:17:29;;;;;;;;;;;;;;;10.88;73.86;101077.09;5070917;28;19920;-84
2023/01/11 02:19:56;;;;;;;;;;;;;;;10.84;73.88;101077.72;5086176;28;19963;-84
2023/01/11 02:22:40;;;;;;;;;;;;;;;10.85;74.24;101079.50;5085084;28;20432;-84
2023/01/11 02:25:08;;;;;;;;;;;;;;;10.87;74.23;101082.22;5069685;28;19917;-84
2023/01/11 02:27:40;;;;;;;;;;;;;;;10.87;73.89;101084.81;5078767;28;20374;-84
2023/01/11 02:30:24;;;;;;;;;;;;;;;10.85;74.08;101071.66;5070285;28;20381;-84
2023/01/11 02:32:58;;;;;;;;;;;;;;;10.87;73.94;101077.88;5070431;28;19920;-84
2023/01/11 02:35:26;;;;;;;;;;;;;;;10.85;73.98;101087.34;5085485;28;19927;-84
2023/01/11 02:38:00;;;;;;;;;;;;;;;10.83;74.04;101090.69;5084654;28;19942;-84
2023/01/11 02:40:44;;;;;;;;;;;;;;;10.87;74.15;101082.22;5052780;28;19935;-84
2023/01/11 02:46:09;;;;;;;;;;;;;;;10.86;74.15;101091.75;5077951;28;20367;-84
2023/01/11 02:48:43;;;;;;;;;;;;;;;10.88;74.20;101089.22;5070791;28;19924;-84
2023/01/11 02:51:12;;;;;;;;;;;;;;;10.85;74.20;101089.94;5085085;28;19916;-84
2023/01/11 02:53:40;;;;;;;;;;;;;;;10.90;74.28;101100.66;5085983;28;19928;-84
2023/01/11 02:56:25;;;;;;;;;;;;;;;10.87;74.20;101105.72;5082567;28;19974;-84
2023/01/11 02:58:52;;;;;;;;;;;;;;;10.87;74.00;101119.69;5069563;28;19920;-84
2023/01/11 03:01:18;;;;;;;;;;;;;;;10.89;74.20;101119.78;5066996;28;19916;-85
2023/01/11 03:03:43;;;;;;;;;;;;;;;10.89;73.78;101125.91;5070397;28;19923;-84
2023/01/11 03:06:19;;;;;;;;;;;;;;;10.89;73.97;101115.44;5071365;28;19920;-85
2023/01/11 03:08:50;;;;;;;;;;;;;;;10.87;74.18;101111.84;5063465;28;19994;-85
2023/01/11 03:12:50;;;;;;;;;;;;;;;10.88;73.84;101112.72;5072143;28;19923;-84
2023/01/11 03:14:24;;;;;;;;;;;;;;;10.87;73.91;101117.06;5070053;28;20009;-84
2023/01/11 03:17:04;;;;;;;;;;;;;;;10.90;73.81;101118.94;5036179;28;20428;-84
2023/01/11 03:19:34;;;;;;;;;;;;;;;10.89;74.20;101122.38;5073909;28;20006;-84
2023/01/11 03:21:59;;;;;;;;;;;;;;;10.89;73.95;101118.06;5076957;28;20657;-84
2023/01/11 03:24:31;;;;;;;;;;;;;;;10.91;74.26;101118.16;5069698;28;19931;-84
2023/01/11 03:27:15;;;;;;;;;;;;;;;10.88;74.05;101105.81;5085931;28;20352;-84
2023/01/11 03:29:43;;;;;;;;;;;;;;;10.94;74.07;101100.94;5085623;28;19921;-84
2023/01/11 03:32:11;;;;;;;;;;;;;;;10.94;73.68;101111.41;5067907;28;20427;-84
2023/01/11 03:34:39;;;;;;;;;;;;;;;10.88;74.30;101104.91;5080929;28;20424;-84
2023/01/11 03:37:16;;;;;;;;;;;;;;;10.81;74.19;101108.88;5085752;28;20202;-85
2023/01/11 03:39:42;;;;;;;;;;;;;;;10.88;74.22;101111.03;5082734;28;19928;-84
2023/01/11 03:42:07;;;;;;;;;;;;;;;10.90;74.16;101105.88;5069861;28;19924;-85
2023/01/11 03:44:34;;;;;;;;;;;;;;;10.88;74.40;101097.97;5075780;28;20350;-85
2023/01/11 03:47:04;;;;;;;;;;;;;;;10.89;74.22;101098.88;5083841;28;19985;-84
2023/01/11 03:49:33;;;;;;;;;;;;;;;10.92;74.15;101101.66;5079052;28;19920;-84
2023/01/11 03:51:59;;;;;;;;;;;;;;;10.93;73.77;101100.84;5085526;28;20355;-84
2023/01/11 03:54:24;;;;;;;;;;;;;;;10.93;73.75;101104.34;5085293;28;19920;-86
2023/01/11 03:56:50;;;;;;;;;;;;;;;10.96;73.79;101103.63;5086569;28;20408;-84
2023/01/11 03:59:15;;;;;;;;;;;;;;;10.93;74.19;101116.53;5066927;28;19970;-84
2023/01/11 04:01:42;;;;;;;;;;;;;;;10.91;73.83;101121.66;5069324;28;19923;-84
2023/01/11 04:04:07;;;;;;;;;;;;;;;10.92;73.97;101127.78;5080994;28;20012;-83
2023/01/11 04:06:33;;;;;;;;;;;;;;;10.89;74.15;101122.38;5070645;28;20000;-83
2023/01/11 04:08:58;;;;;;;;;;;;;;;10.94;73.81;101119.25;5084019;28;20393;-83
2023/01/11 04:11:23;;;;;;;;;;;;;;;10.91;74.01;101123.38;5071805;28;20443;-83
2023/01/11 04:13:49;;;;;;;;;;;;;;;10.94;74.02;101134.91;5078791;28;20451;-84
2023/01/11 04:16:14;;;;;;;;;;;;;;;10.95;73.91;101134.09;5052649;28;20348;-84
2023/01/11 04:18:40;;;;;;;;;;;;;;;10.88;74.46;101128.41;5071036;28;20375;-85
2023/01/11 04:21:05;;;;;;;;;;;;;;;10.93;74.18;101125.25;5081798;28;19938;-84
2023/01/11 04:23:31;;;;;;;;;;;;;;;10.91;74.36;101134.72;5066763;28;19966;-84
2023/01/11 04:25:56;;;;;;;;;;;;;;;10.95;73.99;101141.03;5076033;28;19912;-84
2023/01/11 04:28:22;;;;;;;;;;;;;;;10.94;73.85;101150.59;5072354;28;20405;-85
2023/01/11 04:30:47;;;;;;;;;;;;;;;10.91;74.23;101146.91;5079460;28;20412;-85
2023/01/11 04:33:13;;;;;;;;;;;;;;;10.93;74.35;101150.50;5077381;28;20390;-85
2023/01/11 04:35:38;;;;;;;;;;;;;;;10.95;74.25;101152.38;5074122;28;20542;-85
2023/01/11 04:38:04;;;;;;;;;;;;;;;10.91;74.35;101144.28;5085905;28;19917;-85
2023/01/11 04:40:29;;;;;;;;;;;;;;;10.89;74.00;101149.41;5076341;28;19936;-84
2023/01/11 04:42:55;;;;;;;;;;;;;;;10.94;74.05;101152.28;5077583;28;19948;-85
2023/01/11 04:45:20;;;;;;;;;;;;;;;10.93;74.06;101156.63;5069763;28;20351;-84
2023/01/11 04:47:45;;;;;;;;;;;;;;;10.86;74.55;101157.09;5055982;28;19916;-84
2023/01/11 04:50:11;;;;;;;;;;;;;;;10.87;74.15;101160.59;5088624;28;19955;-84
2023/01/11 04:52:36;;;;;;;;;;;;;;;10.90;74.14;101143.38;5089829;28;19954;-84
2023/01/11 04:55:02;;;;;;;;;;;;;;;10.87;74.22;101151.03;5089343;28;20031;-84
2023/01/11 04:57:27;;;;;;;;;;;;;;;10.93;74.26;101146.16;5081696;28;19980;-84
2023/01/11 04:59:53;;;;;;;;;;;;;;;10.96;74.11;101154.19;5069468;28;19927;-85
2023/01/11 05:02:18;;;;;;;;;;;;;;;10.91;73.99;101171.31;5079429;28;20621;-83
2023/01/11 05:04:44;;;;;;;;;;;;;;;10.93;74.09;101176.63;5078338;28;20405;-86
2023/01/11 05:07:09;;;;;;;;;;;;;;;10.94;74.06;101175.81;5089439;28;19969;-86
2023/01/11 05:09:35;;;;;;;;;;;;;;;10.97;74.26;101182.13;5080105;28;19925;-83
2023/01/11 05:12:00;;;;;;;;;;;;;;;10.98;73.78;101173.50;5083623;28;19924;-84
2023/01/11 05:14:26;;;;;;;;;;;;;;;10.93;74.29;101185.38;5073512;28;19952;-84
2023/01/11 05:16:51;;;;;;;;;;;;;;;10.95;74.37;101182.84;5088616;28;19916;-85
2023/01/11 05:19:17;;;;;;;;;;;;;;;10.97;73.83;101189.06;5087377;28;19944;-86
2023/01/11 05:21:42;;;;;;;;;;;;;;;10.96;74.20;101193.41;5071856;28;19916;-84
2023/01/11 05:24:09;;;;;;;;;;;;;;;10.98;74.00;101196.06;5055398;28;20382;-84
2023/01/11 05:26:35;;;;;;;;;;;;;;;10.97;74.01;101199.53;5088457;28;20386;-86
2023/01/11 05:29:02;;;;;;;;;;;;;;;10.93;74.04;101202.75;5089895;28;19919;-85
2023/01/11 05:31:27;;;;;;;;;;;;;;;10.95;74.40;101206.38;5096372;28;19966;-84
2023/01/11 05:33:54;;;;;;;;;;;;;;;10.95;74.25;101203.75;5081219;28;19921;-85
2023/01/11 05:36:20;;;;;;;;;;;;;;;11.00;74.09;101197.97;5089254;28;20015;-85
2023/01/11 05:38:46;;;;;;;;;;;;;;;10.97;74.28;101196.91;5088842;28;19952;-85
2023/01/11 05:41:12;;;;;;;;;;;;;;;10.98;74.21;101197.00;5089089;28;19920;-85
2023/01/11 05:45:27;;;;;;;;;;;;;;;11.00;73.95;101208.41;5071453;28;19928;-84
2023/01/11 05:46:23;;;;;;;;;;;;;;;10.96;74.35;101216.91;5082449;28;19916;-84
2023/01/11 05:48:48;;;;;;;;;;;;;;;10.99;73.89;101222.31;5092277;28;19920;-85
2023/01/11 05:51:14;;;;;;;;;;;;;;;10.97;74.06;101220.44;5088912;28;19966;-85
2023/01/11 05:53:39;;;;;;;;;;;;;;;10.96;74.16;101223.84;5073323;28;20350;-86
2023/01/11 05:56:05;;;;;;;;;;;;;;;10.97;74.11;101226.53;5035227;28;19939;-86
2023/01/11 05:58:30;;;;;;;;;;;;;;;11.00;73.92;101234.56;5079033;28;19916;-85
2023/01/11 06:00:56;;;;;;;;;;;;;;;10.98;74.40;101235.28;5082081;28;19920;-86
2023/01/11 06:03:22;;;;;;;;;;;;;;;10.95;74.27;101249.06;5093871;28;20397;-87
2023/01/11 06:05:48;;;;;;;;;;;;;;;10.97;74.25;101257.91;5077066;28;20317;-86
2023/01/11 06:08:13;;;;;;;;;;;;;;;10.94;74.59;101270.78;5098576;28;20436;-86
2023/01/11 06:10:38;;;;;;;;;;;;;;;11.01;74.14;101266.84;5098205;28;19923;-86
2023/01/11 06:15:48;;;;;;;;;;;;;;;11.03;74.19;101285.19;5100048;28;20404;-84
2023/01/11 06:18:13;;;;;;;;;;;;;;;10.93;74.32;101282.03;5097133;28;19916;-85
2023/01/11 06:20:38;;;;;;;;;;;;;;;10.97;74.10;101281.41;5077519;28;20074;-85
2023/01/11 06:23:04;;;;;;;;;;;;;;;10.98;74.00;101275.41;5086849;28;19920;-85
2023/01/11 06:25:31;;;;;;;;;;;;;;;10.96;74.49;101281.31;5054514;28;19921;-85
2023/01/11 06:27:58;;;;;;;;;;;;;;;11.01;74.04;101285.13;5090722;28;19916;-85
2023/01/11 06:30:24;;;;;;;;;;;;;;;11.00;74.22;101289.44;5059609;28;19920;-85
2023/01/11 06:32:53;;;;;;;;;;;;;;;11.00;74.25;101286.81;5082352;28;19917;-84
2023/01/11 06:35:18;;;;;;;;;;;;;;;11.03;74.13;101288.75;5072412;28;20458;-82
2023/01/11 06:37:44;;;;;;;;;;;;;;;10.98;73.99;101292.78;5072284;28;19955;-85
2023/01/11 06:40:09;;;;;;;;;;;;;;;11.02;74.25;101289.53;5054037;28;19925;-87
2023/01/11 06:42:35;;;;;;;;;;;;;;;11.03;73.84;101293.97;5087950;28;20394;-86
2023/01/11 06:45:00;;;;;;;;;;;;;;;11.01;74.17;101287.75;5091620;28;19917;-86
2023/01/11 06:47:26;;;;;;;;;;;;;;;11.02;73.94;101284.31;5074010;28;19913;-86
2023/01/11 06:49:51;;;;;;;;;;;;;;;11.02;74.04;101284.31;5087778;28;20368;-86
2023/01/11 06:52:16;;;;;;;;;;;;;;;11.05;74.13;101287.13;5089402;28;19965;-87
2023/01/11 06:54:42;;;;;;;;;;;;;;;10.99;74.42;101281.53;5070339;28;20493;-85
2023/01/11 06:57:08;;;;;;;;;;;;;;;10.95;77.17;101280.41;5071206;28;20386;-89
2023/01/11 06:59:42;;;;;;;;;;;;;;;10.95;76.39;101275.19;5076289;28;19931;-90
2023/01/11 07:02:22;;;;;;;;;;;;;;;11.07;75.15;101269.81;5087429;28;19970;-90
2023/01/11 07:04:48;;;;;;;;;;;;;;;11.09;74.48;101275.13;5071072;28;19920;-88
2023/01/11 07:07:13;;;;;;;;;;;;;;;11.12;74.92;101284.06;5037832;28;19912;-88
2023/01/11 07:09:44;;;;;;;;;;;;;;;11.12;74.51;101285.78;5066708;28;19916;-90
2023/01/11 07:12:10;;;;;;;;;;;;;;;11.11;74.66;101284.88;5076289;28;19916;-89
2023/01/11 07:14:35;;;;;;;;;;;;;;;11.13;74.19;101283.25;5070357;28;19927;-88
2023/01/11 07:17:01;;;;;;;;;;;;;;;11.15;74.15;101291.16;5074260;28;19927;-87
2023/01/11 07:19:26;;;;;;;;;;;;;;;11.14;74.14;101292.91;5082068;28;20435;-87
2023/01/11 07:21:52;;;;;;;;;;;;;;;11.14;74.36;101298.13;5079921;28;19923;-88
2023/01/11 07:24:55;;;;;;;;;;;;;;;11.17;74.38;101300.00;5084433;28;20007;-88
2023/01/11 07:27:22;;;;;;;;;;;;;;;11.16;74.30;101295.59;5055751;28;20046;-87
2023/01/11 07:29:47;;;;;;;;;;;;;;;11.16;74.14;101298.22;5076666;28;19913;-87
2023/01/11 07:32:15;;;;;;;;;;;;;;;11.17;73.94;101307.84;5085897;28;20033;-89
2023/01/11 07:34:41;;;;;;;;;;;;;;;11.18;74.35;101302.72;5087272;28;19920;-89
2023/01/11 07:37:10;;;;;;;;;;;;;;;11.19;74.17;101301.00;5070285;28;20320;-88
2023/01/11 07:39:36;;;;;;;;;;;;;;;11.21;73.94;101304.63;5077760;28;20317;-89
2023/01/11 07:45:06;;;;;;;;;;;;;;;11.22;73.84;101306.44;5071720;28;19927;-89
2023/01/11 07:47:32;;;;;;;;;;;;;;;11.23;74.04;101310.84;5070790;28;19916;-88
2023/01/11 07:49:57;;;;;;;;;;;;;;;11.24;74.05;101320.50;5087034;28;20385;-87
2023/01/11 07:52:23;;;;;;;;;;;;;;;11.14;74.79;101320.75;5071174;28;20370;-90
2023/01/11 07:54:49;;;;;;;;;;;;;;;11.20;74.68;101321.13;5037173;28;19968;-90
2023/01/11 07:57:16;;;;;;;;;;;;;;;11.25;74.41;101330.13;5037407;28;19958;-90
2023/01/11 07:59:41;;;;;;;;;;;;;;;11.28;74.21;101330.34;5071763;28;19927;-89
2023/01/11 08:02:11;;;;;;;;;;;;;;;11.28;74.22;101327.72;5070871;28;19912;-89
2023/01/11 08:04:37;;;;;;;;;;;;;;;11.31;74.38;101342.69;5087021;28;20007;-88
2023/01/11 08:07:02;;;;;;;;;;;;;;;11.32;74.10;101347.09;5086028;28;19995;-88
2023/01/11 08:09:28;;;;;;;;;;;;;;;11.34;74.13;101343.75;5088776;28;20374;-88
2023/01/11 08:14:40;;;;;;;;;;;;;;;11.33;74.18;101359.38;5088528;28;19943;-88
2023/01/11 08:17:06;;;;;;;;;;;;;;;11.31;74.70;101359.25;5069702;28;19983;-88
2023/01/11 08:19:32;;;;;;;;;;;;;;;11.31;74.69;101361.88;5086833;28;20011;-88
2023/01/11 08:21:57;;;;;;;;;;;;;;;11.33;74.45;101369.81;5070238;28;20010;-88
2023/01/11 08:24:22;;;;;;;;;;;;;;;11.38;74.33;101363.16;5086932;28;19979;-88
2023/01/11 08:26:48;;;;;;;;;;;;;;;11.37;74.82;101367.47;5070207;28;20462;-88
2023/01/11 08:29:14;;;;;;;;;;;;;;;11.34;75.48;101369.91;5069921;28;20003;-86
2023/01/11 08:31:45;;;;;;;;;;;;;;;11.39;75.03;101368.47;5071652;28;19920;-91
2023/01/11 08:34:10;;;;;;;;;;;;;;;11.40;75.19;101369.38;5087861;28;20313;-90
2023/01/11 08:36:38;;;;;;;;;;;;;;;11.39;75.29;101371.09;5081601;28;19913;-91
2023/01/11 08:39:03;;;;;;;;;;;;;;;11.35;75.46;101378.66;5071335;28;19916;-90
2023/01/11 08:41:34;;;;;;;;;;;;;;;11.39;75.51;101378.94;5088148;28;19916;-91
2023/01/11 08:44:00;;;;;;;;;;;;;;;11.37;75.86;101370.09;5087477;28;19912;-90
2023/01/11 08:46:26;;;;;;;;;;;;;;;11.39;75.72;101378.94;5071072;28;20374;-89
2023/01/11 08:48:54;;;;;;;;;;;;;;;11.44;75.62;101371.38;5054106;28;19918;-89
2023/01/11 08:51:22;;;;;;;;;;;;;;;11.44;75.85;101375.69;5070449;28;19919;-90
2023/01/11 08:53:52;;;;;;;;;;;;;;;11.43;75.96;101379.09;5070782;28;19913;-91
2023/01/11 08:56:19;;;;;;;;;;;;;;;11.48;76.13;101377.69;5087496;28;19912;-90
2023/01/11 08:58:53;;;;;;;;;;;;;;;11.54;75.83;101385.91;5092904;28;19918;-90
2023/01/11 09:01:18;;;;;;;;;;;;;;;11.53;76.20;101384.97;5089026;28;20414;-90
2023/01/11 09:03:45;;;;;;;;;;;;;;;11.56;76.69;101386.91;5080399;28;19916;-92
2023/01/11 09:06:10;;;;;;;;;;;;;;;11.57;77.02;101375.63;5071339;28;19912;-91
2023/01/11 09:08:36;;;;;;;;;;;;;;;11.57;77.16;101370.38;5070763;28;20381;-90
2023/01/11 09:11:01;;;;;;;;;;;;;;;11.56;77.15;101360.75;5071746;28;19948;-90
2023/01/11 09:13:27;;;;;;;;;;;;;;;11.56;78.26;101374.72;5083601;28;20417;-90
2023/01/11 09:15:54;;;;;;;;;;;;;;;11.56;78.25;101371.22;5087348;28;19913;-89
2023/01/11 09:18:21;;;;;;;;;;;;;;;11.55;79.13;101372.00;5071572;28;19986;-89
2023/01/11 09:20:49;;;;;;;;;;;;;;;11.57;79.71;101366.03;5073765;28;20304;-90
2023/01/11 09:23:16;;;;;;;;;;;;;;;11.58;79.41;101360.03;5085872;28;20561;-90
2023/01/11 09:25:42;;;;;;;;;;;;;;;11.64;79.83;101369.94;5073740;28;19916;-89
2023/01/11 09:28:08;;;;;;;;;;;;;;;11.67;79.64;101364.88;5097920;28;19912;-90
2023/01/11 09:30:34;;;;;;;;;;;;;;;11.65;80.76;101365.63;5090219;28;19912;-90
2023/01/11 09:33:00;;;;;;;;;;;;;;;11.66;80.71;101360.44;5065355;28;19919;-90
2023/01/11 09:35:26;;;;;;;;;;;;;;;11.69;80.95;101349.28;5073799;28;19925;-90
2023/01/11 09:37:55;;;;;;;;;;;;;;;11.69;80.58;101352.81;5064894;28;19916;-90
2023/01/11 09:40:22;;;;;;;;;;;;;;;11.71;81.13;101352.91;5091282;28;20646;-90
2023/01/11 09:42:51;;;;;;;;;;;;;;;11.74;80.42;101355.69;5102738;28;20012;-90
2023/01/11 09:45:22;;;;;;;;;;;;;;;11.72;81.15;101350.34;5057351;28;20522;-90
2023/01/11 09:48:22;;;;;;;;;;;;;;;11.75;81.00;101349.66;5091975;28;20290;-90
2023/01/11 09:50:48;;;;;;;;;;;;;;;11.79;81.11;101349.91;5086042;28;19913;-90
2023/01/11 09:53:33;;;;;;;;;;;;;;;11.80;81.07;101349.09;5073885;28;20409;-90
2023/01/11 09:56:04;;;;;;;;;;;;;;;11.80;81.21;101346.47;5086341;28;20003;-90
2023/01/11 09:58:50;;;;;;;;;;;;;;;11.79;81.48;101346.41;5081709;28;19913;-90
2023/01/11 10:01:37;;;;;;;;;;;;;;;11.79;81.73;101346.41;5090672;28;19927;-92
2023/01/11 10:04:19;;;;;;;;;;;;;;;11.82;81.34;101355.31;5060807;28;20389;-91
2023/01/11 10:09:40;;;;;;;;;;;;;;;11.80;82.01;101356.94;5074773;28;19956;-91
2023/01/11 10:12:07;;;;;;;;;;;;;;;11.85;81.67;101351.97;5083164;28;19912;-91
2023/01/11 10:14:55;;;;;;;;;;;;;;;11.80;80.94;101358.66;5085714;28;19913;-91
2023/01/11 10:17:40;;;;;;;;;;;;;;;11.85;81.51;101361.53;5071506;28;19917;-91
2023/01/11 10:20:26;;;;;;;;;;;;;;;11.87;81.73;101358.19;5066376;28;20443;-91
2023/01/11 10:22:56;;;;;;;;;;;;;;;11.86;82.15;101355.50;5066675;28;19966;-91
2023/01/11 10:25:33;;;;;;;;;;;;;;;11.87;81.16;101352.97;5090250;28;19916;-91
2023/01/11 10:28:01;;;;;;;;;;;;;;;11.90;82.05;101358.41;5088089;28;19923;-90
2023/01/11 10:40:05;;;;;;;;;;;;;;;11.94;81.36;101363.03;5087453;28;20047;-91
2023/01/11 10:42:53;;;;;;;;;;;;;;;11.98;81.54;101372.84;5068289;28;19924;-92
2023/01/11 10:45:24;;;;;;;;;;;;;;;11.97;82.00;101362.28;5042747;28;19917;-91
2023/01/11 10:48:06;;;;;;;;;;;;;;;11.98;81.59;101371.94;5089191;28;20378;-90
2023/01/11 10:50:37;;;;;;;;;;;;;;;12.01;81.73;101364.28;5072046;28;19912;-92
2023/01/11 10:53:14;;;;;;;;;;;;;;;12.01;82.03;101372.13;5091746;28;19912;-91
2023/01/11 10:58:49;;;;;;;;;;;;;;;12.05;81.77;101362.75;5082436;28;19912;-91
2023/01/11 11:01:41;;;;;;;;;;;;;;;12.03;81.82;101367.88;5054627;28;19939;-91
2023/01/11 11:04:22;;;;;;;;;;;;;;;12.03;82.21;101370.50;5070112;28;19924;-91
2023/01/11 11:06:54;;;;;;;;;;;;;;;11.99;83.04;101360.66;5060185;28;19919;-91
2023/01/11 11:09:25;;;;;;;;;;;;;;;11.99;83.18;101350.19;5069269;28;19938;-92
2023/01/11 11:15:15;;;;;;;;;;;;;;;12.02;83.05;101346.03;5068628;28;20397;-92
2023/01/11 11:17:43;;;;;;;;;;;;;;;12.06;82.81;101346.22;5073199;28;20002;-87
2023/01/11 11:20:28;;;;;;;;;;;;;;;12.07;83.67;101346.31;5087529;28;19990;-93
2023/01/11 11:23:16;;;;;;;;;;;;;;;12.08;83.44;101347.19;5070614;28;19916;-93
2023/01/11 11:26:01;;;;;;;;;;;;;;;12.10;84.46;101351.69;5058189;28;19919;-93
2023/01/11 11:28:32;;;;;;;;;;;;;;;12.12;84.36;101355.31;5074540;28;19916;-93
2023/01/11 11:31:13;;;;;;;;;;;;;;;12.14;85.11;101360.63;5071135;28;20058;-93
2023/01/11 11:33:39;;;;;;;;;;;;;;;12.13;85.70;101351.88;5089276;28;19916;-92
2023/01/11 11:36:10;;;;;;;;;;;;;;;12.13;86.37;101357.13;5072188;28;20001;-92
2023/01/11 11:41:49;;;;;;;;;;;;;;;12.14;86.73;101347.56;5083368;28;19924;-92
2023/01/11 11:44:29;;;;;;;;;;;;;;;12.15;86.77;101339.78;5066074;28;19974;-93
2023/01/11 11:47:32;;;;;;;;;;;;;;;12.20;86.89;101347.91;5090342;28;19917;-92
2023/01/11 11:50:21;;;;;;;;;;;;;;;12.19;87.30;101346.06;5087053;28;19952;-93
2023/01/11 11:52:49;;;;;;;;;;;;;;;12.22;87.32;101348.88;5066885;28;20016;-92
2023/01/11 11:55:14;;;;;;;;;;;;;;;12.20;87.77;101340.94;5071542;28;19970;-92
2023/01/11 11:57:43;;;;;;;;;;;;;;;12.20;88.19;101342.66;5071537;28;19913;-92
2023/01/11 12:00:28;;;;;;;;;;;;;;;12.26;87.58;101339.50;5071310;28;19970;-92
2023/01/11 12:03:32;;;;;;;;;;;;;;;12.27;87.77;101338.66;5088592;28;20016;-92
2023/01/11 12:05:59;;;;;;;;;;;;;;;12.30;87.24;101341.47;5010587;28;19920;-92
2023/01/11 12:08:43;;;;;;;;;;;;;;;12.30;87.17;101347.59;5071725;28;19913;-94
2023/01/11 12:11:25;;;;;;;;;;;;;;;12.29;87.72;101345.78;5082544;28;19913;-92
2023/01/11 12:16:39;;;;;;;;;;;;;;;12.24;88.74;101355.13;5071154;28;19912;-91
2023/01/11 12:19:34;;;;;;;;;;;;;;;12.30;88.26;101354.56;5068228;28;19916;-91
2023/01/11 12:22:21;;;;;;;;;;;;;;;12.27;88.44;101363.13;5060897;28;19912;-92
2023/01/11 12:24:52;;;;;;;;;;;;;;;12.31;87.38;101366.84;5087971;28;19916;-91
2023/01/11 12:27:17;;;;;;;;;;;;;;;12.30;87.95;101360.69;5088385;28;20387;-91
2023/01/11 12:30:09;;;;;;;;;;;;;;;12.30;87.68;101360.69;5080678;28;20435;-91
2023/01/11 12:33:01;;;;;;;;;;;;;;;12.32;88.06;101363.38;5088383;28;19920;-91
2023/01/11 12:35:47;;;;;;;;;;;;;;;12.32;87.88;101360.75;5087735;28;19978;-91
2023/01/11 12:41:42;;;;;;;;;;;;;;;12.34;88.20;101367.00;5073522;28;20382;-91
2023/01/11 12:44:26;;;;;;;;;;;;;;;12.39;87.61;101366.44;5080306;28;19917;-92
2023/01/11 12:52:48;;;;;;;;;;;;;;;12.38;87.78;101372.50;5075272;28;19939;-92
2023/01/11 12:55:19;;;;;;;;;;;;;;;12.37;88.00;101370.69;5058134;28;20394;-93
2023/01/11 12:57:59;;;;;;;;;;;;;;;12.42;87.67;101374.50;5092246;28;19913;-91
2023/01/11 13:00:32;;;;;;;;;;;;;;;12.39;88.15;101376.03;5092673;28;19921;-90
2023/01/11 13:03:18;;;;;;;;;;;;;;;12.29;89.15;101369.34;5075862;28;19952;-93
2023/01/11 13:05:59;;;;;;;;;;;;;;;12.27;89.07;101376.22;5090596;28;19917;-92
2023/01/11 13:08:35;;;;;;;;;;;;;;;12.32;88.60;101377.41;5091685;28;19928;-92
2023/01/11 13:14:21;;;;;;;;;;;;;;;12.35;88.51;101366.19;5066869;28;19973;-94
2023/01/11 13:17:10;;;;;;;;;;;;;;;12.33;87.89;101375.69;5073886;28;20396;-93
2023/01/11 13:19:55;;;;;;;;;;;;;;;12.29;88.73;101379.84;5087339;28;20011;-93
2023/01/11 13:22:27;;;;;;;;;;;;;;;12.33;87.60;101373.06;5087734;28;19990;-94
2023/01/11 13:24:56;;;;;;;;;;;;;;;12.34;87.80;101388.88;5053779;28;19924;-94
2023/01/11 13:27:49;;;;;;;;;;;;;;;12.31;88.24;101383.44;5074282;28;19999;-93
2023/01/11 13:36:44;;;;;;;;;;;;;;;12.40;87.08;101381.38;5060425;28;19979;-93
2023/01/11 13:42:30;;;;;;;;;;;;;;;12.38;87.23;101383.00;5054472;28;19939;-96
2023/01/11 13:45:16;;;;;;;;;;;;;;;12.43;86.49;101386.75;5074661;28;20287;-92
2023/01/11 13:48:38;;;;;;;;;;;;;;;12.43;86.38;101378.91;5026626;28;19920;-93
2023/01/11 13:52:08;;;;;;;;;;;;;;;12.45;86.85;101383.34;4908965;29;20381;-94
2023/01/11 13:57:58;;;;;;;;;;;;;;;12.47;87.07;101394.81;4953106;28;20411;-93
2023/01/11 14:04:04;;;;;;;;;;;;;;;12.52;86.13;101389.00;4955176;28;19926;-94
2023/01/11 14:12:56;;;;;;;;;;;;;;;12.48;88.57;101392.25;4954503;28;20332;-93